sensor_id;sensor_type;location;lat;lon;timestamp;P1;durP1;ratioP1;P2;durP2;ratioP2
43449;SDS011;29041;42.266;23.110;2022-08-19T00:00:07;3.15;;;2.60;;
43449;SDS011;29041;42.266;23.110;2022-08-19T00:02:58;3.67;;;2.35;;
43449;SDS011;29041;42.266;23.110;2022-08-19T00:05:45;3.05;;;2.08;;
43449;SDS011;29041;42.266;23.110;2022-08-19T00:08:32;2.78;;;2.45;;
43449;SDS011;29041;42.266;23.110;2022-08-19T00:11:19;3.95;;;2.50;;
43449;SDS011;29041;42.266;23.110;2022-08-19T00:14:07;2.65;;;2.45;;
43449;SDS011;29041;42.266;23.110;2022-08-19T00:16:56;3.28;;;2.63;;
43449;SDS011;29041;42.266;23.110;2022-08-19T00:19:45;4.05;;;3.25;;
43449;SDS011;29041;42.266;23.110;2022-08-19T00:22:32;3.58;;;2.63;;
43449;SDS011;29041;42.266;23.110;2022-08-19T00:25:19;3.13;;;2.67;;
43449;SDS011;29041;42.266;23.110;2022-08-19T00:28:07;4.38;;;2.58;;
43449;SDS011;29041;42.266;23.110;2022-08-19T00:30:54;4.20;;;2.88;;
43449;SDS011;29041;42.266;23.110;2022-08-19T00:33:42;3.58;;;3.28;;
43449;SDS011;29041;42.266;23.110;2022-08-19T00:36:31;3.92;;;2.35;;
43449;SDS011;29041;42.266;23.110;2022-08-19T00:39:18;3.30;;;2.75;;
43449;SDS011;29041;42.266;23.110;2022-08-19T00:42:05;2.63;;;2.33;;
43449;SDS011;29041;42.266;23.110;2022-08-19T00:44:52;3.75;;;2.20;;
43449;SDS011;29041;42.266;23.110;2022-08-19T00:47:39;3.60;;;2.80;;
43449;SDS011;29041;42.266;23.110;2022-08-19T00:50:27;3.55;;;2.67;;
43449;SDS011;29041;42.266;23.110;2022-08-19T00:53:17;3.60;;;3.30;;
43449;SDS011;29041;42.266;23.110;2022-08-19T00:56:08;4.40;;;3.28;;
43449;SDS011;29041;42.266;23.110;2022-08-19T00:58:55;3.25;;;2.80;;
43449;SDS011;29041;42.266;23.110;2022-08-19T01:01:44;2.67;;;2.17;;
43449;SDS011;29041;42.266;23.110;2022-08-19T01:04:32;3.45;;;3.15;;
43449;SDS011;29041;42.266;23.110;2022-08-19T01:07:19;3.28;;;2.47;;
43449;SDS011;29041;42.266;23.110;2022-08-19T01:10:09;3.42;;;3.13;;
43449;SDS011;29041;42.266;23.110;2022-08-19T01:12:58;3.13;;;2.55;;
43449;SDS011;29041;42.266;23.110;2022-08-19T01:15:48;3.30;;;2.65;;
43449;SDS011;29041;42.266;23.110;2022-08-19T01:18:39;2.75;;;2.35;;
43449;SDS011;29041;42.266;23.110;2022-08-19T01:21:29;4.57;;;2.95;;
43449;SDS011;29041;42.266;23.110;2022-08-19T01:24:20;4.07;;;3.00;;
43449;SDS011;29041;42.266;23.110;2022-08-19T01:27:08;3.95;;;3.08;;
43449;SDS011;29041;42.266;23.110;2022-08-19T01:29:56;4.35;;;2.90;;
43449;SDS011;29041;42.266;23.110;2022-08-19T01:32:43;4.53;;;2.88;;
43449;SDS011;29041;42.266;23.110;2022-08-19T01:35:31;3.97;;;3.58;;
43449;SDS011;29041;42.266;23.110;2022-08-19T01:38:19;3.95;;;2.83;;
43449;SDS011;29041;42.266;23.110;2022-08-19T01:41:09;3.30;;;3.00;;
43449;SDS011;29041;42.266;23.110;2022-08-19T01:43:57;3.28;;;2.97;;
43449;SDS011;29041;42.266;23.110;2022-08-19T01:46:44;5.25;;;3.35;;
43449;SDS011;29041;42.266;23.110;2022-08-19T01:49:33;3.25;;;2.80;;
43449;SDS011;29041;42.266;23.110;2022-08-19T01:52:20;4.45;;;2.85;;
43449;SDS011;29041;42.266;23.110;2022-08-19T01:55:09;4.20;;;2.85;;
43449;SDS011;29041;42.266;23.110;2022-08-19T01:58:01;4.72;;;3.45;;
43449;SDS011;29041;42.266;23.110;2022-08-19T02:00:51;4.10;;;3.53;;
43449;SDS011;29041;42.266;23.110;2022-08-19T02:03:38;3.55;;;3.10;;
43449;SDS011;29041;42.266;23.110;2022-08-19T02:06:25;3.47;;;2.83;;
43449;SDS011;29041;42.266;23.110;2022-08-19T02:09:13;4.00;;;2.95;;
43449;SDS011;29041;42.266;23.110;2022-08-19T02:12:01;3.65;;;2.95;;
43449;SDS011;29041;42.266;23.110;2022-08-19T02:14:51;4.22;;;3.50;;
43449;SDS011;29041;42.266;23.110;2022-08-19T02:17:38;4.05;;;2.42;;
43449;SDS011;29041;42.266;23.110;2022-08-19T02:20:25;3.63;;;3.13;;
43449;SDS011;29041;42.266;23.110;2022-08-19T02:23:13;4.90;;;3.30;;
43449;SDS011;29041;42.266;23.110;2022-08-19T02:26:00;2.97;;;2.50;;
43449;SDS011;29041;42.266;23.110;2022-08-19T02:28:47;4.28;;;3.13;;
43449;SDS011;29041;42.266;23.110;2022-08-19T02:31:36;3.90;;;2.78;;
43449;SDS011;29041;42.266;23.110;2022-08-19T02:34:23;4.10;;;2.85;;
43449;SDS011;29041;42.266;23.110;2022-08-19T02:37:11;3.95;;;2.33;;
43449;SDS011;29041;42.266;23.110;2022-08-19T02:40:12;3.45;;;2.75;;
43449;SDS011;29041;42.266;23.110;2022-08-19T02:42:59;3.55;;;2.72;;
43449;SDS011;29041;42.266;23.110;2022-08-19T02:45:47;4.30;;;3.15;;
43449;SDS011;29041;42.266;23.110;2022-08-19T02:48:37;4.63;;;3.53;;
43449;SDS011;29041;42.266;23.110;2022-08-19T02:51:26;4.15;;;3.60;;
43449;SDS011;29041;42.266;23.110;2022-08-19T02:54:14;3.92;;;2.78;;
43449;SDS011;29041;42.266;23.110;2022-08-19T02:57:02;4.82;;;3.05;;
43449;SDS011;29041;42.266;23.110;2022-08-19T02:59:49;3.38;;;3.08;;
43449;SDS011;29041;42.266;23.110;2022-08-19T03:02:37;5.95;;;3.08;;
43449;SDS011;29041;42.266;23.110;2022-08-19T03:05:25;3.88;;;3.10;;
43449;SDS011;29041;42.266;23.110;2022-08-19T03:08:13;5.18;;;3.50;;
43449;SDS011;29041;42.266;23.110;2022-08-19T03:11:00;3.92;;;3.42;;
43449;SDS011;29041;42.266;23.110;2022-08-19T03:13:48;5.03;;;3.22;;
43449;SDS011;29041;42.266;23.110;2022-08-19T03:16:40;4.50;;;3.38;;
43449;SDS011;29041;42.266;23.110;2022-08-19T03:19:30;3.63;;;3.33;;
43449;SDS011;29041;42.266;23.110;2022-08-19T03:22:19;4.18;;;3.47;;
43449;SDS011;29041;42.266;23.110;2022-08-19T03:25:06;5.03;;;3.47;;
43449;SDS011;29041;42.266;23.110;2022-08-19T03:27:54;4.40;;;3.90;;
43449;SDS011;29041;42.266;23.110;2022-08-19T03:30:42;4.30;;;3.20;;
43449;SDS011;29041;42.266;23.110;2022-08-19T03:33:41;5.35;;;3.20;;
43449;SDS011;29041;42.266;23.110;2022-08-19T03:36:28;4.65;;;3.60;;
43449;SDS011;29041;42.266;23.110;2022-08-19T03:39:17;4.53;;;3.00;;
43449;SDS011;29041;42.266;23.110;2022-08-19T03:42:05;3.78;;;3.47;;
43449;SDS011;29041;42.266;23.110;2022-08-19T03:44:52;3.97;;;3.30;;
43449;SDS011;29041;42.266;23.110;2022-08-19T03:47:39;5.70;;;3.05;;
43449;SDS011;29041;42.266;23.110;2022-08-19T03:50:27;4.40;;;3.60;;
43449;SDS011;29041;42.266;23.110;2022-08-19T03:53:15;3.95;;;2.95;;
43449;SDS011;29041;42.266;23.110;2022-08-19T03:56:03;4.28;;;3.55;;
43449;SDS011;29041;42.266;23.110;2022-08-19T03:58:51;4.90;;;3.85;;
43449;SDS011;29041;42.266;23.110;2022-08-19T04:01:38;4.80;;;3.95;;
43449;SDS011;29041;42.266;23.110;2022-08-19T04:04:27;4.93;;;3.92;;
43449;SDS011;29041;42.266;23.110;2022-08-19T04:07:14;4.07;;;3.63;;
43449;SDS011;29041;42.266;23.110;2022-08-19T04:10:03;5.25;;;3.92;;
43449;SDS011;29041;42.266;23.110;2022-08-19T04:12:52;4.25;;;3.45;;
43449;SDS011;29041;42.266;23.110;2022-08-19T04:15:40;4.70;;;3.97;;
43449;SDS011;29041;42.266;23.110;2022-08-19T04:18:28;4.50;;;3.42;;
43449;SDS011;29041;42.266;23.110;2022-08-19T04:21:17;4.47;;;3.17;;
43449;SDS011;29041;42.266;23.110;2022-08-19T04:24:06;3.83;;;3.33;;
43449;SDS011;29041;42.266;23.110;2022-08-19T04:26:58;4.53;;;3.13;;
43449;SDS011;29041;42.266;23.110;2022-08-19T04:29:47;6.28;;;3.63;;
43449;SDS011;29041;42.266;23.110;2022-08-19T04:32:34;5.10;;;3.95;;
43449;SDS011;29041;42.266;23.110;2022-08-19T04:35:22;6.55;;;3.80;;
43449;SDS011;29041;42.266;23.110;2022-08-19T04:38:09;3.75;;;2.83;;
43449;SDS011;29041;42.266;23.110;2022-08-19T04:40:57;3.95;;;3.20;;
43449;SDS011;29041;42.266;23.110;2022-08-19T04:44:04;3.63;;;3.17;;
43449;SDS011;29041;42.266;23.110;2022-08-19T04:46:53;4.05;;;3.45;;
43449;SDS011;29041;42.266;23.110;2022-08-19T04:49:41;7.70;;;4.20;;
43449;SDS011;29041;42.266;23.110;2022-08-19T04:52:28;4.97;;;3.95;;
43449;SDS011;29041;42.266;23.110;2022-08-19T04:55:17;5.72;;;3.03;;
43449;SDS011;29041;42.266;23.110;2022-08-19T04:58:04;4.28;;;3.63;;
43449;SDS011;29041;42.266;23.110;2022-08-19T05:00:52;3.70;;;3.15;;
43449;SDS011;29041;42.266;23.110;2022-08-19T05:03:40;4.82;;;4.03;;
43449;SDS011;29041;42.266;23.110;2022-08-19T05:06:28;4.65;;;3.53;;
43449;SDS011;29041;42.266;23.110;2022-08-19T05:09:18;4.75;;;3.47;;
43449;SDS011;29041;42.266;23.110;2022-08-19T05:12:12;4.95;;;3.50;;
43449;SDS011;29041;42.266;23.110;2022-08-19T05:14:59;4.32;;;3.47;;
43449;SDS011;29041;42.266;23.110;2022-08-19T05:17:48;4.53;;;3.28;;
43449;SDS011;29041;42.266;23.110;2022-08-19T05:20:50;4.60;;;3.83;;
43449;SDS011;29041;42.266;23.110;2022-08-19T05:23:54;6.00;;;3.38;;
43449;SDS011;29041;42.266;23.110;2022-08-19T05:26:43;5.50;;;4.20;;
43449;SDS011;29041;42.266;23.110;2022-08-19T05:29:33;4.93;;;3.55;;
43449;SDS011;29041;42.266;23.110;2022-08-19T05:32:20;5.63;;;3.47;;
43449;SDS011;29041;42.266;23.110;2022-08-19T05:35:08;3.92;;;3.28;;
43449;SDS011;29041;42.266;23.110;2022-08-19T05:37:58;6.80;;;3.45;;
43449;SDS011;29041;42.266;23.110;2022-08-19T05:40:45;4.35;;;3.53;;
43449;SDS011;29041;42.266;23.110;2022-08-19T05:43:34;5.88;;;3.75;;
43449;SDS011;29041;42.266;23.110;2022-08-19T05:46:22;6.70;;;4.25;;
43449;SDS011;29041;42.266;23.110;2022-08-19T05:49:09;5.45;;;3.33;;
43449;SDS011;29041;42.266;23.110;2022-08-19T05:51:56;4.15;;;3.47;;
43449;SDS011;29041;42.266;23.110;2022-08-19T05:54:46;5.85;;;3.55;;
43449;SDS011;29041;42.266;23.110;2022-08-19T05:57:36;7.60;;;3.83;;
43449;SDS011;29041;42.266;23.110;2022-08-19T06:00:23;5.80;;;3.28;;
43449;SDS011;29041;42.266;23.110;2022-08-19T06:03:11;6.03;;;3.30;;
43449;SDS011;29041;42.266;23.110;2022-08-19T06:05:58;5.07;;;3.38;;
43449;SDS011;29041;42.266;23.110;2022-08-19T06:08:45;6.13;;;3.95;;
43449;SDS011;29041;42.266;23.110;2022-08-19T06:11:37;6.60;;;3.15;;
43449;SDS011;29041;42.266;23.110;2022-08-19T06:14:27;6.95;;;3.42;;
43449;SDS011;29041;42.266;23.110;2022-08-19T06:17:16;4.07;;;3.40;;
43449;SDS011;29041;42.266;23.110;2022-08-19T06:20:03;5.95;;;3.80;;
43449;SDS011;29041;42.266;23.110;2022-08-19T06:22:51;4.53;;;3.10;;
43449;SDS011;29041;42.266;23.110;2022-08-19T06:25:39;4.47;;;2.83;;
43449;SDS011;29041;42.266;23.110;2022-08-19T06:28:27;4.85;;;3.47;;
43449;SDS011;29041;42.266;23.110;2022-08-19T06:31:15;4.25;;;3.22;;
43449;SDS011;29041;42.266;23.110;2022-08-19T06:34:05;6.85;;;3.20;;
43449;SDS011;29041;42.266;23.110;2022-08-19T06:36:52;5.45;;;3.13;;
43449;SDS011;29041;42.266;23.110;2022-08-19T06:39:41;4.80;;;4.20;;
43449;SDS011;29041;42.266;23.110;2022-08-19T06:42:29;3.85;;;3.05;;
43449;SDS011;29041;42.266;23.110;2022-08-19T06:45:18;3.30;;;2.95;;
43449;SDS011;29041;42.266;23.110;2022-08-19T06:48:05;5.85;;;3.03;;
43449;SDS011;29041;42.266;23.110;2022-08-19T06:50:53;5.35;;;3.55;;
43449;SDS011;29041;42.266;23.110;2022-08-19T06:53:41;3.92;;;3.20;;
43449;SDS011;29041;42.266;23.110;2022-08-19T06:56:32;4.25;;;2.40;;
43449;SDS011;29041;42.266;23.110;2022-08-19T06:59:20;3.85;;;3.25;;
43449;SDS011;29041;42.266;23.110;2022-08-19T07:02:19;3.60;;;2.75;;
43449;SDS011;29041;42.266;23.110;2022-08-19T07:05:07;6.00;;;3.47;;
43449;SDS011;29041;42.266;23.110;2022-08-19T07:07:54;4.82;;;3.80;;
43449;SDS011;29041;42.266;23.110;2022-08-19T07:10:44;3.63;;;2.88;;
43449;SDS011;29041;42.266;23.110;2022-08-19T07:13:32;5.40;;;3.20;;
43449;SDS011;29041;42.266;23.110;2022-08-19T07:16:22;5.72;;;2.97;;
43449;SDS011;29041;42.266;23.110;2022-08-19T07:19:10;5.18;;;3.15;;
43449;SDS011;29041;42.266;23.110;2022-08-19T07:21:58;4.82;;;2.72;;
43449;SDS011;29041;42.266;23.110;2022-08-19T07:24:47;5.10;;;2.85;;
43449;SDS011;29041;42.266;23.110;2022-08-19T07:27:34;5.40;;;2.80;;
43449;SDS011;29041;42.266;23.110;2022-08-19T07:30:22;3.13;;;2.75;;
43449;SDS011;29041;42.266;23.110;2022-08-19T07:33:09;5.57;;;3.03;;
43449;SDS011;29041;42.266;23.110;2022-08-19T07:35:58;5.15;;;2.92;;
43449;SDS011;29041;42.266;23.110;2022-08-19T07:38:46;3.97;;;2.80;;
43449;SDS011;29041;42.266;23.110;2022-08-19T07:41:35;5.05;;;3.00;;
43449;SDS011;29041;42.266;23.110;2022-08-19T07:44:23;7.28;;;2.88;;
43449;SDS011;29041;42.266;23.110;2022-08-19T07:47:10;5.80;;;3.08;;
43449;SDS011;29041;42.266;23.110;2022-08-19T07:50:00;6.03;;;3.10;;
43449;SDS011;29041;42.266;23.110;2022-08-19T07:52:51;7.40;;;2.30;;
43449;SDS011;29041;42.266;23.110;2022-08-19T07:55:38;5.05;;;3.25;;
43449;SDS011;29041;42.266;23.110;2022-08-19T07:58:25;4.35;;;2.63;;
43449;SDS011;29041;42.266;23.110;2022-08-19T08:01:13;4.18;;;2.60;;
43449;SDS011;29041;42.266;23.110;2022-08-19T08:04:03;9.82;;;3.15;;
43449;SDS011;29041;42.266;23.110;2022-08-19T08:07:07;8.40;;;3.60;;
43449;SDS011;29041;42.266;23.110;2022-08-19T08:10:13;6.50;;;2.90;;
43449;SDS011;29041;42.266;23.110;2022-08-19T08:13:01;6.15;;;3.03;;
43449;SDS011;29041;42.266;23.110;2022-08-19T08:15:50;9.25;;;3.75;;
43449;SDS011;29041;42.266;23.110;2022-08-19T08:18:38;5.15;;;3.28;;
43449;SDS011;29041;42.266;23.110;2022-08-19T08:21:27;7.20;;;2.70;;
43449;SDS011;29041;42.266;23.110;2022-08-19T08:24:15;4.82;;;3.25;;
43449;SDS011;29041;42.266;23.110;2022-08-19T08:27:04;7.30;;;2.90;;
43449;SDS011;29041;42.266;23.110;2022-08-19T08:29:51;6.47;;;3.28;;
43449;SDS011;29041;42.266;23.110;2022-08-19T08:32:39;4.25;;;2.40;;
43449;SDS011;29041;42.266;23.110;2022-08-19T08:35:26;6.70;;;3.80;;
43449;SDS011;29041;42.266;23.110;2022-08-19T08:38:13;5.35;;;4.07;;
43449;SDS011;29041;42.266;23.110;2022-08-19T08:41:02;4.90;;;3.10;;
43449;SDS011;29041;42.266;23.110;2022-08-19T08:43:57;6.13;;;3.58;;
43449;SDS011;29041;42.266;23.110;2022-08-19T08:46:45;6.32;;;3.28;;
43449;SDS011;29041;42.266;23.110;2022-08-19T08:49:36;6.38;;;3.47;;
43449;SDS011;29041;42.266;23.110;2022-08-19T08:52:32;5.63;;;3.22;;
43449;SDS011;29041;42.266;23.110;2022-08-19T08:55:23;4.18;;;2.78;;
43449;SDS011;29041;42.266;23.110;2022-08-19T08:58:13;4.50;;;3.33;;
43449;SDS011;29041;42.266;23.110;2022-08-19T09:01:05;7.13;;;3.13;;
43449;SDS011;29041;42.266;23.110;2022-08-19T09:03:53;6.13;;;3.20;;
43449;SDS011;29041;42.266;23.110;2022-08-19T09:06:43;5.28;;;3.63;;
43449;SDS011;29041;42.266;23.110;2022-08-19T09:09:38;3.90;;;3.20;;
43449;SDS011;29041;42.266;23.110;2022-08-19T09:12:31;7.38;;;3.60;;
43449;SDS011;29041;42.266;23.110;2022-08-19T09:15:27;5.70;;;3.95;;
43449;SDS011;29041;42.266;23.110;2022-08-19T09:18:18;4.43;;;2.63;;
43449;SDS011;29041;42.266;23.110;2022-08-19T09:21:05;8.38;;;4.18;;
43449;SDS011;29041;42.266;23.110;2022-08-19T09:23:53;8.15;;;3.53;;
43449;SDS011;29041;42.266;23.110;2022-08-19T09:26:40;7.47;;;3.90;;
43449;SDS011;29041;42.266;23.110;2022-08-19T09:29:29;7.65;;;3.63;;
43449;SDS011;29041;42.266;23.110;2022-08-19T09:32:16;7.68;;;3.80;;
43449;SDS011;29041;42.266;23.110;2022-08-19T09:35:06;9.57;;;4.22;;
43449;SDS011;29041;42.266;23.110;2022-08-19T09:37:54;9.90;;;4.57;;
43449;SDS011;29041;42.266;23.110;2022-08-19T09:40:42;8.35;;;3.58;;
43449;SDS011;29041;42.266;23.110;2022-08-19T09:43:29;7.00;;;3.88;;
43449;SDS011;29041;42.266;23.110;2022-08-19T09:46:16;8.25;;;4.50;;
43449;SDS011;29041;42.266;23.110;2022-08-19T09:49:06;6.05;;;3.15;;
43449;SDS011;29041;42.266;23.110;2022-08-19T09:51:55;7.00;;;3.28;;
43449;SDS011;29041;42.266;23.110;2022-08-19T09:54:42;6.32;;;3.20;;
43449;SDS011;29041;42.266;23.110;2022-08-19T09:57:30;7.40;;;3.40;;
43449;SDS011;29041;42.266;23.110;2022-08-19T10:00:18;6.38;;;3.60;;
43449;SDS011;29041;42.266;23.110;2022-08-19T10:03:06;6.80;;;4.05;;
43449;SDS011;29041;42.266;23.110;2022-08-19T10:05:54;4.88;;;3.25;;
43449;SDS011;29041;42.266;23.110;2022-08-19T10:08:44;4.93;;;3.72;;
43449;SDS011;29041;42.266;23.110;2022-08-19T10:11:32;7.38;;;3.58;;
43449;SDS011;29041;42.266;23.110;2022-08-19T10:14:22;5.22;;;2.65;;
43449;SDS011;29041;42.266;23.110;2022-08-19T10:17:10;5.30;;;3.05;;
43449;SDS011;29041;42.266;23.110;2022-08-19T10:19:57;8.43;;;3.47;;
43449;SDS011;29041;42.266;23.110;2022-08-19T10:22:44;5.15;;;3.13;;
43449;SDS011;29041;42.266;23.110;2022-08-19T10:25:33;5.78;;;3.75;;
43449;SDS011;29041;42.266;23.110;2022-08-19T10:28:20;3.17;;;2.78;;
43449;SDS011;29041;42.266;23.110;2022-08-19T10:31:08;4.80;;;3.13;;
43449;SDS011;29041;42.266;23.110;2022-08-19T10:33:57;4.30;;;2.53;;
43449;SDS011;29041;42.266;23.110;2022-08-19T10:36:44;4.22;;;2.88;;
43449;SDS011;29041;42.266;23.110;2022-08-19T10:39:32;4.43;;;2.72;;
43449;SDS011;29041;42.266;23.110;2022-08-19T10:42:21;5.78;;;3.35;;
43449;SDS011;29041;42.266;23.110;2022-08-19T10:45:09;7.65;;;3.33;;
43449;SDS011;29041;42.266;23.110;2022-08-19T10:47:57;8.15;;;3.28;;
43449;SDS011;29041;42.266;23.110;2022-08-19T10:50:44;4.03;;;3.00;;
43449;SDS011;29041;42.266;23.110;2022-08-19T10:53:48;3.58;;;3.17;;
43449;SDS011;29041;42.266;23.110;2022-08-19T10:56:36;4.60;;;2.97;;
43449;SDS011;29041;42.266;23.110;2022-08-19T10:59:39;3.33;;;2.60;;
43449;SDS011;29041;42.266;23.110;2022-08-19T11:02:26;3.85;;;2.30;;
43449;SDS011;29041;42.266;23.110;2022-08-19T11:05:13;2.42;;;1.98;;
43449;SDS011;29041;42.266;23.110;2022-08-19T11:08:02;2.22;;;1.90;;
43449;SDS011;29041;42.266;23.110;2022-08-19T11:10:50;4.18;;;1.92;;
43449;SDS011;29041;42.266;23.110;2022-08-19T11:13:43;3.42;;;2.30;;
43449;SDS011;29041;42.266;23.110;2022-08-19T11:16:33;2.33;;;1.88;;
43449;SDS011;29041;42.266;23.110;2022-08-19T11:19:20;2.15;;;1.95;;
43449;SDS011;29041;42.266;23.110;2022-08-19T11:22:09;2.30;;;1.70;;
43449;SDS011;29041;42.266;23.110;2022-08-19T11:24:56;2.30;;;1.63;;
43449;SDS011;29041;42.266;23.110;2022-08-19T11:27:43;2.13;;;1.92;;
43449;SDS011;29041;42.266;23.110;2022-08-19T11:30:32;2.35;;;1.77;;
43449;SDS011;29041;42.266;23.110;2022-08-19T11:33:21;1.98;;;1.77;;
43449;SDS011;29041;42.266;23.110;2022-08-19T11:36:08;3.30;;;1.88;;
43449;SDS011;29041;42.266;23.110;2022-08-19T11:38:56;1.92;;;1.50;;
43449;SDS011;29041;42.266;23.110;2022-08-19T11:41:44;2.10;;;1.90;;
43449;SDS011;29041;42.266;23.110;2022-08-19T11:44:31;2.80;;;1.70;;
43449;SDS011;29041;42.266;23.110;2022-08-19T11:47:18;3.08;;;2.15;;
43449;SDS011;29041;42.266;23.110;2022-08-19T11:50:08;2.42;;;1.60;;
43449;SDS011;29041;42.266;23.110;2022-08-19T11:52:55;2.20;;;2.00;;
43449;SDS011;29041;42.266;23.110;2022-08-19T11:55:44;1.90;;;1.70;;
43449;SDS011;29041;42.266;23.110;2022-08-19T11:58:32;2.92;;;2.10;;
43449;SDS011;29041;42.266;23.110;2022-08-19T12:01:21;2.53;;;2.15;;
43449;SDS011;29041;42.266;23.110;2022-08-19T12:04:10;2.88;;;1.35;;
43449;SDS011;29041;42.266;23.110;2022-08-19T12:06:58;2.42;;;2.00;;
43449;SDS011;29041;42.266;23.110;2022-08-19T12:09:47;1.60;;;1.33;;
43449;SDS011;29041;42.266;23.110;2022-08-19T12:12:34;2.13;;;1.80;;
43449;SDS011;29041;42.266;23.110;2022-08-19T12:15:25;2.95;;;1.63;;
43449;SDS011;29041;42.266;23.110;2022-08-19T12:18:14;1.70;;;1.60;;
43449;SDS011;29041;42.266;23.110;2022-08-19T12:21:01;2.47;;;1.50;;
43449;SDS011;29041;42.266;23.110;2022-08-19T12:23:50;1.50;;;1.40;;
43449;SDS011;29041;42.266;23.110;2022-08-19T12:26:38;2.05;;;1.77;;
43449;SDS011;29041;42.266;23.110;2022-08-19T12:29:25;2.10;;;1.73;;
43449;SDS011;29041;42.266;23.110;2022-08-19T12:32:14;1.80;;;1.63;;
43449;SDS011;29041;42.266;23.110;2022-08-19T12:35:02;2.50;;;1.67;;
43449;SDS011;29041;42.266;23.110;2022-08-19T12:37:49;2.65;;;1.60;;
43449;SDS011;29041;42.266;23.110;2022-08-19T12:40:38;2.35;;;1.90;;
43449;SDS011;29041;42.266;23.110;2022-08-19T12:43:26;1.67;;;1.58;;
43449;SDS011;29041;42.266;23.110;2022-08-19T12:46:15;1.85;;;1.50;;
43449;SDS011;29041;42.266;23.110;2022-08-19T12:49:03;2.58;;;1.77;;
43449;SDS011;29041;42.266;23.110;2022-08-19T12:51:50;1.98;;;1.75;;
43449;SDS011;29041;42.266;23.110;2022-08-19T12:54:38;1.90;;;1.63;;
43449;SDS011;29041;42.266;23.110;2022-08-19T12:57:27;3.50;;;1.73;;
43449;SDS011;29041;42.266;23.110;2022-08-19T13:00:20;3.17;;;1.70;;
43449;SDS011;29041;42.266;23.110;2022-08-19T13:03:07;2.92;;;1.92;;
43449;SDS011;29041;42.266;23.110;2022-08-19T13:05:55;2.08;;;1.77;;
43449;SDS011;29041;42.266;23.110;2022-08-19T13:08:42;2.75;;;2.42;;
43449;SDS011;29041;42.266;23.110;2022-08-19T13:11:29;2.25;;;1.83;;
43449;SDS011;29041;42.266;23.110;2022-08-19T13:14:19;5.10;;;4.38;;
43449;SDS011;29041;42.266;23.110;2022-08-19T13:17:06;2.00;;;1.88;;
43449;SDS011;29041;42.266;23.110;2022-08-19T13:19:53;3.45;;;2.17;;
43449;SDS011;29041;42.266;23.110;2022-08-19T13:22:41;2.13;;;1.80;;
43449;SDS011;29041;42.266;23.110;2022-08-19T13:25:30;3.03;;;2.20;;
43449;SDS011;29041;42.266;23.110;2022-08-19T13:28:17;3.05;;;2.63;;
43449;SDS011;29041;42.266;23.110;2022-08-19T13:31:06;2.88;;;2.20;;
43449;SDS011;29041;42.266;23.110;2022-08-19T13:34:11;2.45;;;1.90;;
43449;SDS011;29041;42.266;23.110;2022-08-19T13:36:59;2.45;;;1.73;;
43449;SDS011;29041;42.266;23.110;2022-08-19T13:39:48;2.10;;;1.88;;
43449;SDS011;29041;42.266;23.110;2022-08-19T13:42:35;2.38;;;1.67;;
43449;SDS011;29041;42.266;23.110;2022-08-19T13:45:23;6.22;;;2.75;;
43449;SDS011;29041;42.266;23.110;2022-08-19T13:48:13;3.10;;;1.60;;
43449;SDS011;29041;42.266;23.110;2022-08-19T13:51:00;6.40;;;2.13;;
43449;SDS011;29041;42.266;23.110;2022-08-19T13:53:51;1.88;;;1.77;;
43449;SDS011;29041;42.266;23.110;2022-08-19T13:56:41;1.90;;;1.50;;
43449;SDS011;29041;42.266;23.110;2022-08-19T13:59:29;2.35;;;1.88;;
43449;SDS011;29041;42.266;23.110;2022-08-19T14:02:16;2.80;;;1.90;;
43449;SDS011;29041;42.266;23.110;2022-08-19T14:05:06;2.47;;;2.28;;
43449;SDS011;29041;42.266;23.110;2022-08-19T14:07:55;3.38;;;2.15;;
43449;SDS011;29041;42.266;23.110;2022-08-19T14:10:42;2.05;;;1.73;;
43449;SDS011;29041;42.266;23.110;2022-08-19T14:13:30;3.70;;;1.70;;
43449;SDS011;29041;42.266;23.110;2022-08-19T14:16:19;2.72;;;2.25;;
43449;SDS011;29041;42.266;23.110;2022-08-19T14:19:07;3.38;;;2.83;;
43449;SDS011;29041;42.266;23.110;2022-08-19T14:21:56;1.70;;;1.60;;
43449;SDS011;29041;42.266;23.110;2022-08-19T14:24:45;2.53;;;2.17;;
43449;SDS011;29041;42.266;23.110;2022-08-19T14:27:33;1.95;;;1.55;;
43449;SDS011;29041;42.266;23.110;2022-08-19T14:30:21;1.95;;;1.75;;
43449;SDS011;29041;42.266;23.110;2022-08-19T14:33:10;3.38;;;2.50;;
43449;SDS011;29041;42.266;23.110;2022-08-19T14:35:59;2.55;;;1.60;;
43449;SDS011;29041;42.266;23.110;2022-08-19T14:38:48;4.85;;;1.90;;
43449;SDS011;29041;42.266;23.110;2022-08-19T14:41:35;1.92;;;1.52;;
43449;SDS011;29041;42.266;23.110;2022-08-19T14:44:22;2.03;;;1.80;;
43449;SDS011;29041;42.266;23.110;2022-08-19T14:47:10;3.15;;;1.70;;
43449;SDS011;29041;42.266;23.110;2022-08-19T14:49:57;3.20;;;1.88;;
43449;SDS011;29041;42.266;23.110;2022-08-19T14:52:44;1.88;;;1.67;;
43449;SDS011;29041;42.266;23.110;2022-08-19T14:55:34;2.17;;;1.90;;
43449;SDS011;29041;42.266;23.110;2022-08-19T14:58:24;1.60;;;1.50;;
43449;SDS011;29041;42.266;23.110;2022-08-19T15:01:12;2.67;;;2.00;;
43449;SDS011;29041;42.266;23.110;2022-08-19T15:04:00;4.10;;;2.28;;
43449;SDS011;29041;42.266;23.110;2022-08-19T15:06:47;2.65;;;1.75;;
43449;SDS011;29041;42.266;23.110;2022-08-19T15:09:36;2.90;;;1.88;;
43449;SDS011;29041;42.266;23.110;2022-08-19T15:12:24;2.97;;;2.00;;
43449;SDS011;29041;42.266;23.110;2022-08-19T15:15:13;2.05;;;1.85;;
43449;SDS011;29041;42.266;23.110;2022-08-19T15:18:02;2.53;;;1.55;;
43449;SDS011;29041;42.266;23.110;2022-08-19T15:20:50;2.55;;;1.67;;
43449;SDS011;29041;42.266;23.110;2022-08-19T15:23:37;3.63;;;2.15;;
43449;SDS011;29041;42.266;23.110;2022-08-19T15:26:26;2.47;;;1.77;;
43449;SDS011;29041;42.266;23.110;2022-08-19T15:29:19;3.15;;;1.98;;
43449;SDS011;29041;42.266;23.110;2022-08-19T15:32:06;1.98;;;1.80;;
43449;SDS011;29041;42.266;23.110;2022-08-19T15:34:54;2.45;;;1.90;;
43449;SDS011;29041;42.266;23.110;2022-08-19T15:37:41;3.03;;;2.00;;
43449;SDS011;29041;42.266;23.110;2022-08-19T15:40:28;3.05;;;2.22;;
43449;SDS011;29041;42.266;23.110;2022-08-19T15:43:17;2.47;;;2.03;;
43449;SDS011;29041;42.266;23.110;2022-08-19T15:46:07;4.45;;;2.08;;
43449;SDS011;29041;42.266;23.110;2022-08-19T15:48:54;2.97;;;2.22;;
43449;SDS011;29041;42.266;23.110;2022-08-19T15:51:42;3.20;;;1.85;;
43449;SDS011;29041;42.266;23.110;2022-08-19T15:57:20;1.67;;;1.58;;
43449;SDS011;29041;42.266;23.110;2022-08-19T16:00:24;7.57;;;2.80;;
43449;SDS011;29041;42.266;23.110;2022-08-19T16:03:30;3.20;;;2.80;;
43449;SDS011;29041;42.266;23.110;2022-08-19T16:06:34;3.05;;;2.42;;
43449;SDS011;29041;42.266;23.110;2022-08-19T16:09:22;2.95;;;2.55;;
43449;SDS011;29041;42.266;23.110;2022-08-19T16:12:13;3.72;;;2.40;;
43449;SDS011;29041;42.266;23.110;2022-08-19T16:15:01;6.53;;;3.08;;
43449;SDS011;29041;42.266;23.110;2022-08-19T16:17:49;4.07;;;2.53;;
43449;SDS011;29041;42.266;23.110;2022-08-19T16:20:38;2.47;;;2.10;;
43449;SDS011;29041;42.266;23.110;2022-08-19T16:23:25;3.50;;;2.45;;
43449;SDS011;29041;42.266;23.110;2022-08-19T16:26:14;8.32;;;4.47;;
43449;SDS011;29041;42.266;23.110;2022-08-19T16:29:03;5.38;;;3.65;;
43449;SDS011;29041;42.266;23.110;2022-08-19T16:31:51;4.47;;;2.97;;
43449;SDS011;29041;42.266;23.110;2022-08-19T16:34:40;11.45;;;7.75;;
43449;SDS011;29041;42.266;23.110;2022-08-19T16:37:30;3.67;;;2.60;;
43449;SDS011;29041;42.266;23.110;2022-08-19T16:40:18;4.05;;;2.78;;
43449;SDS011;29041;42.266;23.110;2022-08-19T16:43:05;5.70;;;3.40;;